航空気象通報

ウインドサーファーのための航空気象通報による風予報です。

11/30-12/1の航空気象通報(国内、海外)

2011年11月30日 22時44分31秒 | TAF

羽田空港
TAF RJTT 300840Z 3009/0112 07018KT 9999 FEW020 BKN030
      BECMG 3009/3011 05018KT
日本時間30日18時:070度から18ノットの風
18-20時:風が変化
20時-1日21時:050度から18ノットの風

富士山静岡空港
TAF RJNS 300840Z 3009/0112 28006KT 9999 FEW020 BKN050
      BECMG 3021/3024 05008KT
日本時間30日18時-1日06時:280度から6ノットの風
06-09時:風が変化
09-21時:050度から8ノットの風

福岡空港
TAF RJFF 300850Z 3009/0112 01008KT 9000 FEW020 BKN035
日本時間30日18時-1日21時:010度から8ノットの風

那覇空港
TAF AMD ROAH 301037Z 3010/0112 01011KT 9999 FEW010 BKN040
日本時間30日18時-1日21時:010度から11ノットの風

マウイのカフルイ空港
TAF PHOG 301123Z 3012/0112 12006KT P6SM SKC
     FM301700 04006KT P6SM SCT050
     FM302000 05010KT P6SM SCT050
     FM010300 04008KT P6SM SCT050
ハワイ時間30日02-07時:120度から6ノットの風
07-10時:040度から6ノットの風
10-17時:050度から10ノットの風
17時-1日02時:040度から8ノットの風

サイパン空港
TAF PGSN 301135Z 3012/0112 08011KT P6SM FEW024
     FM302300 08017KT P6SM SCT022
     FM010800 08011KT P6SM SCT022
マリアナ時間30日22時-1日09時:080度から11ノットの風
09-18時:080度から17ノットの風
18-22時:080度から11ノットの風

コメント
この記事をはてなブックマークに追加

11/29-11/30の航空気象通報(国内、海外)

2011年11月29日 23時46分54秒 | TAF

羽田空港
TAF RJTT 290839Z 2909/3012 02006KT 9000 FEW015 SCT030
      BECMG 3003/3006 10008KT
      BECMG 3009/3012 05012KT
日本時間29日18時-30日12時:020度から6ノットの風
12-15時:風が変化
15-18時:100度から8ノットの風
18-21時:風が変化
21時:050度から12ノットの風

富士山静岡空港
TAF RJNS 290840Z 2909/3012 28008KT 9999 FEW030
      BECMG 3000/3003 18006KT
      BECMG 3006/3009 27008KT
日本時間29日18時-30日09時:280度から8ノットの風
09-12時:風が変化
12-15時:180度から6ノットの風
15-18時:風が変化
18-21時:270度から8ノットの風

福岡空港
TAF RJFF 290844Z 2909/3012 04005KT 9999 FEW045
      BECMG 2914/2916 14003KT
      BECMG 3003/3006 32005KT
日本時間29日18-23時:040度から5ノットの風
23時-30日01時:風が変化
01-12時:140度から3ノットの風
12-15時:風が変化
15-21時:320度から5ノットの風

那覇空港
TAF AMD ROAH 291009Z 2910/3012 08006KT 9999 FEW010 BKN040
日本時間29日19時-30日21時:080度から6ノットの風

マウイのカフルイ空港
TAF PHOG 291120Z 2912/3012 05011KT P6SM FEW040 SCT060
     FM292000 05015G25KT P6SM SCT040 SCT060
     FM300600 05011KT P6SM SCT040 SCT060
ハワイ時間29日02-10時:050度から11ノットの風
10-20時:050度から15ノット、突風25ノット
20時-29日02時:050度から11ノットの風

サイパン空港
TAF PGSN 291141Z 2912/3012 08014KT P6SM SCT018
     FM292200 08014G21KT P6SM SCT020
     FM300800 08013KT P6SM SCT020
マリアナ時間28日22時-29日08時:080度から14ノットの風
08-18時:080度から14ノット、突風21ノット
18-22時:080度から13ノットの風

コメント
この記事をはてなブックマークに追加

11/28-11/29の航空気象通報(国内、海外)

2011年11月28日 23時25分34秒 | TAF

羽田空港
TAF RJTT 280837Z 2809/2912 02006KT 9999 FEW015 SCT030
日本時間28日18時-29日21時:020度から6ノットの風

富士山静岡空港
TAF RJNS 280839Z 2809/2912 30004KT 9999 FEW030 SCT060
日本時間28日18時-29日21時:300度から4ノットの風

福岡空港
TAF RJFF 280840Z 2809/2912 14005KT 9999 FEW045
      BECMG 2903/2906 04006KT
      BECMG 2909/2912 13005KT
日本時間28日18時-29日12時:140度から5ノットの風
12-15時:風が変化
15-18時:040度から6ノットの風
18-21時:風が変化
21時:130度から5ノットの風

那覇空港
TAF ROAH 280847Z 2809/2912 08008KT 9999 FEW015 BKN040
日本時間28日18時-29日21時:080度から8ノットの風

マウイのカフルイ空港
TAF PHOG 281138Z 2812/2912 05012G17KT P6SM SCT050
     FM282000 05016G25KT P6SM SCT050
     FM290600 04010KT P6SM SKC
ハワイ時間28日02-10時:050度から12ノット、突風17ノット
10-20時:050度から16ノット、突風25ノット
20時-29日02時:040度から10ノットの風

サイパン空港
TAF PGSN 281137Z 2812/2912 09014KT P6SM VCSH SCT028 SCT110
     FM282300 09014G22KT P6SM VCSH SCT020 SCT050
     FM290800 09010KT P6SM VCSH SCT020 SCT050
マリアナ時間28日22時-29日09時:090度から14ノットの風
09-18時:090度から14ノット、突風22ノット
18-22時:090度から10ノットの風

コメント
この記事をはてなブックマークに追加

11/27-11/28の航空気象通報(国内、海外)

2011年11月27日 21時58分20秒 | TAF

羽田空港
TAF RJTT 270838Z 2709/2812 36006KT 9999 FEW030
      BECMG 2803/2806 08008KT
日本時間27日18-28日12時:360度から6ノットの風
12-15時:風が変化
15-21時:080度から8ノットの風

富士山静岡空港
TAF RJNS 270240Z 2703/2806 23006KT 9999 FEW020
      BECMG 2800/2803 10004KT
日本時間27日18-28日09時:230度から6ノットの風
09-12時:風が変化
12-21時:100度から4ノットの風

福岡空港
TAF RJFF 270840Z 2709/2812 14007KT 9999 FEW030 SCT045
日本時間27日18時-28日21時:140度から7ノットの風

那覇空港
TAF ROAH 260838Z 2609/2712 08009KT 9999 FEW030 SCT045
日本時間26日18時-27日21時:080度から9ノットの風

マウイのカフルイ空港
TAF PHOG 271138Z 2712/2812 05015G24KT P6SM SCT050
     FM280600 04012KT P6SM SCT050
ハワイ時間27日02-20時:050度から15ノット、突風24ノット
20-28日02時:040度から12ノットの風

サイパン空港
TAF PGSN 271141Z 2712/2812 07014KT P6SM VCSH SCT018 SCT050
     FM272300 08016G25KT P6SM VCSH SCT020
     FM280800 08014KT P6SM VCSH SCT020
マリアナ時間27日22時-28日09時:070度から14ノットの風
09-18時:080度から16ノット、突風25ノット
18-22時:080度から14ノットの風

コメント
この記事をはてなブックマークに追加

11/26-11/27の航空気象通報(国内、海外)

2011年11月26日 19時50分50秒 | TAF

羽田空港
TAF RJTT 260842Z 2609/2712 14008KT 9999 FEW030
      BECMG 2611/2613 04006KT
      BECMG 2700/2703 20012KT
日本時間26日18-20時:140度から8ノットの風
20-22時:風が変化
22時-27日09時:040度から6ノットの風
09-12時:風が変化
12-21時:200度から12ノットの風

富士山静岡空港
TAF RJNS 260839Z 2609/2712 23004KT 9999 FEW020
      BECMG 2612/2614 29010KT
日本時間26日18-21時:230度から4ノットの風
21-23時:風が変化
23時-27日21時:290度から10ノットの風

福岡空港
TAF RJFF 260838Z 2609/2712 03004KT 9999 FEW040
      BECMG 2609/2611 14005KT
      BECMG 2703/2706 30005KT
      BECMG 2706/2709 16004KT
日本時間26日18時:030度から4ノットの風
18-20時:風が変化
20時-27日12時:140度から5ノットの風
12-15時:風が変化
15-18時:300度から5ノットの風
18-21時:風が変化
21時:160度から4ノットの風

那覇空港
TAF ROAH 260838Z 2609/2712 08009KT 9999 FEW030 SCT045
日本時間26日18時-27日21時:080度から9ノットの風

マウイのカフルイ空港
TAF PHOG 261138Z 2612/2712 05012G20KT P6SM SCT050
      TEMPO 2612/2615 05010KT
     FM262200 04022G35KT P6SM VCSH SCT025 BKN050
     FM270900 04012G20KT P6SM SCT025 SCT050
ハワイ時間26日02-12時:050度から12ノット、突風20ノット
但し、02-05時の間:ときどき050度から10ノットの風

12-23時:040度から22ノット、突風35ノット

19時-27日02時:040度から12ノット、突風20ノット

サイパン空港
TAF PGSN 261120Z 2612/2712 07014KT P6SM VCSH FEW018 SCT060
マリアナ時間26日22時-27日22時:070度から14ノットの風

コメント
この記事をはてなブックマークに追加